createdAt,value
2022-07-26T00:01:31.678Z,41.28
2022-07-26T00:04:00.108Z,40.87
2022-07-26T00:06:27.224Z,41.12
2022-07-26T00:08:54.252Z,41.00
2022-07-26T00:11:21.732Z,41.16
2022-07-26T00:13:48.526Z,40.79
2022-07-26T00:16:15.335Z,41.14
2022-07-26T00:18:42.228Z,41.30
2022-07-26T00:21:08.862Z,41.24
2022-07-26T00:23:35.713Z,41.35
2022-07-26T00:26:02.358Z,41.09
2022-07-26T00:28:28.959Z,41.23
2022-07-26T00:30:55.575Z,41.67
2022-07-26T00:33:22.180Z,41.63
2022-07-26T00:35:48.790Z,41.55
2022-07-26T00:38:15.429Z,41.70
2022-07-26T00:40:42.056Z,41.90
2022-07-26T00:43:08.710Z,42.19
2022-07-26T00:45:35.338Z,42.39
2022-07-26T00:48:02.259Z,42.48
2022-07-26T00:50:28.918Z,42.59
2022-07-26T00:52:55.616Z,42.97
2022-07-26T00:55:22.441Z,42.76
2022-07-26T00:57:49.124Z,42.99
2022-07-26T01:00:27.802Z,43.18
2022-07-26T01:02:55.509Z,43.00
2022-07-26T01:05:23.498Z,42.78
2022-07-26T01:07:50.377Z,43.18
2022-07-26T01:10:16.960Z,42.78
2022-07-26T01:12:44.322Z,42.94
2022-07-26T01:15:12.799Z,43.11
2022-07-26T01:17:39.705Z,43.26
2022-07-26T01:20:08.983Z,43.42
2022-07-26T01:22:35.653Z,43.22
2022-07-26T01:25:02.227Z,43.47
2022-07-26T01:27:33.824Z,43.39
2022-07-26T01:30:00.879Z,43.41
2022-07-26T01:32:27.481Z,43.25
2022-07-26T01:34:54.104Z,43.35
2022-07-26T01:37:20.757Z,43.59
2022-07-26T01:39:47.452Z,43.52
2022-07-26T01:42:13.964Z,43.65
2022-07-26T01:44:40.734Z,43.74
2022-07-26T01:47:07.763Z,43.75
2022-07-26T01:49:34.602Z,44.21
2022-07-26T01:52:01.308Z,44.36
2022-07-26T01:54:27.992Z,44.38
2022-07-26T01:56:54.530Z,44.45
2022-07-26T01:59:21.257Z,44.63
2022-07-26T02:01:47.938Z,44.57
2022-07-26T02:04:34.627Z,44.44
2022-07-26T02:07:03.329Z,44.72
2022-07-26T02:09:38.137Z,44.53
2022-07-26T02:12:07.231Z,44.72
2022-07-26T02:14:33.848Z,44.65
2022-07-26T02:17:00.839Z,44.62
2022-07-26T02:19:28.220Z,44.69
2022-07-26T02:21:55.188Z,44.72
2022-07-26T02:24:22.013Z,44.79
2022-07-26T02:26:48.673Z,44.76
2022-07-26T02:29:15.276Z,44.80
2022-07-26T02:31:41.917Z,44.91
2022-07-26T02:36:47.825Z,44.72
2022-07-26T02:39:15.041Z,44.91
2022-07-26T02:41:42.109Z,44.82
2022-07-26T02:44:09.996Z,45.08
2022-07-26T02:46:37.622Z,45.04
2022-07-26T02:49:04.935Z,45.05
2022-07-26T02:51:31.702Z,45.12
2022-07-26T02:53:58.381Z,45.17
2022-07-26T02:56:24.989Z,45.47
2022-07-26T02:58:51.656Z,45.51
2022-07-26T03:01:18.358Z,45.58
2022-07-26T03:03:50.386Z,45.89
2022-07-26T03:06:18.677Z,45.94
2022-07-26T03:08:45.699Z,46.29
2022-07-26T03:11:12.486Z,46.46
2022-07-26T03:13:39.314Z,46.53
2022-07-26T03:16:07.596Z,46.78
2022-07-26T03:18:34.251Z,46.89
2022-07-26T03:21:00.937Z,47.00
2022-07-26T03:23:27.581Z,46.96
2022-07-26T03:25:54.202Z,47.02
2022-07-26T03:28:20.800Z,46.97
2022-07-26T03:30:47.461Z,47.23
2022-07-26T03:33:14.029Z,47.66
2022-07-26T03:35:40.670Z,47.74
2022-07-26T03:38:07.205Z,48.03
2022-07-26T03:40:33.829Z,47.97
2022-07-26T03:43:00.556Z,47.95
2022-07-26T03:45:29.810Z,48.13
2022-07-26T03:47:56.358Z,48.41
2022-07-26T03:50:23.094Z,48.53
2022-07-26T03:55:41.499Z,48.08
2022-07-26T03:58:09.041Z,48.01
2022-07-26T04:00:35.640Z,48.06
2022-07-26T04:03:02.383Z,48.03
2022-07-26T04:05:29.050Z,48.23
2022-07-26T04:07:58.006Z,48.15
2022-07-26T04:10:25.858Z,48.12
2022-07-26T04:15:37.227Z,48.33
2022-07-26T04:18:03.972Z,48.79
2022-07-26T04:20:30.618Z,49.13
2022-07-26T04:22:57.277Z,48.91
2022-07-26T04:25:23.971Z,49.12
2022-07-26T04:27:50.571Z,49.34
2022-07-26T04:30:17.219Z,49.36
2022-07-26T04:32:46.430Z,49.56
2022-07-26T04:35:13.802Z,49.59
2022-07-26T04:37:42.675Z,49.54
2022-07-26T04:40:11.804Z,49.71
2022-07-26T04:42:39.712Z,49.78
2022-07-26T04:45:08.558Z,49.47
2022-07-26T04:47:35.503Z,49.70
2022-07-26T04:50:03.710Z,49.46
2022-07-26T04:52:30.338Z,49.62
2022-07-26T04:54:56.914Z,49.64
2022-07-26T04:57:23.647Z,49.63
2022-07-26T05:00:03.393Z,49.59
2022-07-26T05:02:36.990Z,49.22
2022-07-26T05:05:05.080Z,49.29
2022-07-26T05:07:49.422Z,49.32
2022-07-26T05:10:18.284Z,48.97
2022-07-26T05:12:48.787Z,49.03
2022-07-26T05:15:16.165Z,49.06
2022-07-26T05:17:43.574Z,49.06
2022-07-26T05:20:12.312Z,49.11
2022-07-26T05:22:42.125Z,48.83
2022-07-26T05:25:10.302Z,48.83
2022-07-26T05:27:37.089Z,48.85
2022-07-26T05:30:04.065Z,48.79
2022-07-26T05:32:30.693Z,48.88
2022-07-26T05:34:57.408Z,48.65
2022-07-26T05:37:24.020Z,48.76
2022-07-26T05:39:50.890Z,48.67
2022-07-26T05:42:17.468Z,48.67
2022-07-26T05:44:44.094Z,48.72
2022-07-26T05:47:11.224Z,48.63
2022-07-26T05:49:39.639Z,48.73
2022-07-26T05:52:07.451Z,48.66
2022-07-26T05:54:34.140Z,48.72
2022-07-26T05:57:00.884Z,48.69
2022-07-26T05:59:28.166Z,48.84
2022-07-26T06:01:58.117Z,49.01
2022-07-26T06:04:26.725Z,49.03
2022-07-26T06:06:55.003Z,48.81
2022-07-26T06:09:24.818Z,48.85
2022-07-26T06:11:51.871Z,48.78
2022-07-26T06:14:20.013Z,48.84
2022-07-26T06:16:47.261Z,49.05
2022-07-26T06:19:14.001Z,48.84
2022-07-26T06:21:42.092Z,48.95
2022-07-26T06:24:09.054Z,48.88
2022-07-26T06:26:35.951Z,49.12
2022-07-26T06:29:02.548Z,49.10
2022-07-26T06:31:29.590Z,49.03
2022-07-26T06:33:56.132Z,48.82
2022-07-26T06:36:26.098Z,48.86
2022-07-26T06:38:55.245Z,48.96
2022-07-26T06:41:22.136Z,49.02
2022-07-26T06:43:48.758Z,49.05
2022-07-26T06:46:16.429Z,48.93
2022-07-26T06:48:47.213Z,48.68
2022-07-26T06:51:14.516Z,48.49
2022-07-26T06:53:41.726Z,48.62
2022-07-26T06:56:08.587Z,48.55
2022-07-26T06:58:35.159Z,48.74
2022-07-26T07:01:01.914Z,48.48
2022-07-26T07:03:28.469Z,48.61
2022-07-26T07:05:55.110Z,48.50
2022-07-26T07:08:23.264Z,48.48
2022-07-26T07:10:50.854Z,48.18
2022-07-26T07:13:17.832Z,48.52
2022-07-26T07:15:45.139Z,48.62
2022-07-26T07:18:11.984Z,48.66
2022-07-26T07:20:40.461Z,48.54
2022-07-26T07:23:08.036Z,48.51
2022-07-26T07:25:34.636Z,48.71
2022-07-26T07:28:01.715Z,48.59
2022-07-26T07:30:28.836Z,48.88
2022-07-26T07:32:56.550Z,48.76
2022-07-26T07:35:23.522Z,48.81
2022-07-26T07:37:53.565Z,48.68
2022-07-26T07:40:21.598Z,48.52
2022-07-26T07:42:48.226Z,48.40
2022-07-26T07:47:26.946Z,48.32
2022-07-26T07:52:10.026Z,48.15
2022-07-26T07:54:36.817Z,48.31
2022-07-26T07:57:03.452Z,48.23
2022-07-26T07:59:30.779Z,48.23
2022-07-26T08:01:57.393Z,48.17
2022-07-26T08:04:24.152Z,48.24
2022-07-26T08:06:51.361Z,48.42
2022-07-26T08:09:19.200Z,48.34
2022-07-26T08:11:45.999Z,48.12
2022-07-26T08:14:18.449Z,47.96
2022-07-26T08:16:45.258Z,48.23
2022-07-26T08:19:12.394Z,47.91
2022-07-26T08:21:39.181Z,47.97
2022-07-26T08:24:06.928Z,48.08
2022-07-26T08:26:36.633Z,48.15
2022-07-26T08:29:03.636Z,47.74
2022-07-26T08:31:30.606Z,48.04
2022-07-26T08:33:57.534Z,48.22
2022-07-26T08:36:31.963Z,48.14
2022-07-26T08:39:00.941Z,47.98
2022-07-26T08:41:28.416Z,48.28
2022-07-26T08:43:55.058Z,48.05
2022-07-26T08:46:26.483Z,48.06
2022-07-26T08:48:55.570Z,47.93
2022-07-26T08:51:24.822Z,47.74
2022-07-26T08:54:04.061Z,48.06
2022-07-26T08:56:36.162Z,47.86
2022-07-26T08:59:18.860Z,47.73
2022-07-26T09:01:51.014Z,47.71
2022-07-26T09:04:31.026Z,47.87
2022-07-26T09:07:18.261Z,48.04
2022-07-26T09:10:00.670Z,48.09
2022-07-26T09:12:29.489Z,47.93
2022-07-26T09:14:57.153Z,47.97
2022-07-26T09:17:26.099Z,47.82
2022-07-26T09:20:09.747Z,47.70
2022-07-26T09:23:08.713Z,47.71
2022-07-26T09:25:37.995Z,47.58
2022-07-26T09:28:20.912Z,47.80
2022-07-26T09:31:22.745Z,47.76
2022-07-26T09:33:51.540Z,47.69
2022-07-26T09:36:18.969Z,47.87
2022-07-26T09:38:54.732Z,47.93
2022-07-26T09:41:30.306Z,47.64
2022-07-26T09:44:00.497Z,47.79
2022-07-26T09:46:29.614Z,47.85
2022-07-26T09:49:12.931Z,47.83
2022-07-26T09:51:45.512Z,47.52
2022-07-26T09:54:19.674Z,47.53
2022-07-26T09:56:51.804Z,47.55
2022-07-26T09:59:21.606Z,47.93
2022-07-26T10:01:50.752Z,47.83
2022-07-26T10:04:18.471Z,47.87
2022-07-26T10:06:45.813Z,47.97
2022-07-26T10:09:13.789Z,47.85
2022-07-26T10:11:50.793Z,47.51
2022-07-26T10:14:32.667Z,47.95
2022-07-26T10:17:35.238Z,47.60
2022-07-26T10:20:10.660Z,47.96
2022-07-26T10:22:47.873Z,47.85
2022-07-26T10:25:17.396Z,47.85
2022-07-26T10:27:48.944Z,47.74
2022-07-26T10:30:28.843Z,47.62
2022-07-26T10:33:10.190Z,47.98
2022-07-26T10:35:40.158Z,47.88
2022-07-26T10:38:10.811Z,47.86
2022-07-26T10:40:38.965Z,47.83
2022-07-26T10:43:40.640Z,47.61
2022-07-26T10:46:20.162Z,47.56
2022-07-26T10:49:03.631Z,47.54
2022-07-26T10:51:40.987Z,47.50
2022-07-26T10:54:12.158Z,47.68
2022-07-26T10:56:40.102Z,47.57
2022-07-26T10:59:07.024Z,47.54
2022-07-26T11:01:42.190Z,47.95
2022-07-26T11:04:19.432Z,47.56
2022-07-26T11:06:49.146Z,47.75
2022-07-26T11:09:17.375Z,47.64
2022-07-26T11:11:47.210Z,47.78
2022-07-26T11:14:17.060Z,47.51
2022-07-26T11:16:49.955Z,47.79
2022-07-26T11:19:22.169Z,47.65
2022-07-26T11:21:58.527Z,47.30
2022-07-26T11:24:26.804Z,47.48
2022-07-26T11:26:54.149Z,47.75
2022-07-26T11:29:39.195Z,47.74
2022-07-26T11:32:18.598Z,47.37
2022-07-26T11:34:46.456Z,47.53
2022-07-26T11:37:13.544Z,47.35
2022-07-26T11:39:40.319Z,47.51
2022-07-26T11:42:09.493Z,47.72
2022-07-26T11:44:36.557Z,47.74
2022-07-26T11:47:14.652Z,47.79
2022-07-26T11:50:00.207Z,47.59
2022-07-26T11:52:32.023Z,47.48
2022-07-26T11:54:59.491Z,47.67
2022-07-26T11:57:30.545Z,47.69
2022-07-26T11:59:58.879Z,47.60
2022-07-26T12:02:27.240Z,47.46
2022-07-26T12:05:21.180Z,47.62
2022-07-26T12:10:15.774Z,47.80
2022-07-26T12:12:42.650Z,47.66
2022-07-26T12:15:09.555Z,47.53
2022-07-26T12:17:36.200Z,47.72
2022-07-26T12:20:12.955Z,47.44
2022-07-26T12:22:39.897Z,47.58
2022-07-26T12:25:07.238Z,47.40
2022-07-26T12:27:34.112Z,47.61
2022-07-26T12:30:03.837Z,47.61
2022-07-26T12:32:52.016Z,47.46
2022-07-26T12:35:32.067Z,47.32
2022-07-26T12:37:59.408Z,47.60
2022-07-26T12:40:31.129Z,47.38
2022-07-26T12:43:01.043Z,47.19
2022-07-26T12:45:34.829Z,47.13
2022-07-26T12:48:03.778Z,47.25
2022-07-26T12:50:35.069Z,47.23
2022-07-26T12:53:06.964Z,47.22
2022-07-26T12:55:34.420Z,47.10
2022-07-26T12:58:01.047Z,47.14
2022-07-26T13:00:29.848Z,47.08
2022-07-26T13:02:57.287Z,47.16
2022-07-26T13:05:24.337Z,47.31
2022-07-26T13:07:55.480Z,47.14
2022-07-26T13:10:37.957Z,47.33
2022-07-26T13:13:05.088Z,47.51
2022-07-26T13:15:36.605Z,47.74
2022-07-26T13:18:08.281Z,47.72
2022-07-26T13:20:38.245Z,47.39
2022-07-26T13:23:05.232Z,47.86
2022-07-26T13:25:38.308Z,47.67
2022-07-26T13:28:07.450Z,47.89
2022-07-26T13:30:35.888Z,47.84
2022-07-26T13:33:02.738Z,47.70
2022-07-26T13:35:29.335Z,47.87
2022-07-26T13:37:55.966Z,47.54
2022-07-26T13:40:24.358Z,47.52
2022-07-26T13:42:54.674Z,47.79
2022-07-26T13:45:21.257Z,47.87
2022-07-26T13:47:47.959Z,47.83
2022-07-26T13:50:14.518Z,47.50
2022-07-26T13:52:41.215Z,47.91
2022-07-26T13:55:08.251Z,47.52
2022-07-26T13:57:49.614Z,47.79
2022-07-26T14:00:21.883Z,47.70
2022-07-26T14:02:48.572Z,47.49
2022-07-26T14:05:15.218Z,47.49
2022-07-26T14:07:42.507Z,47.55
2022-07-26T14:10:09.676Z,47.99
2022-07-26T14:12:38.081Z,48.25
2022-07-26T14:15:12.765Z,48.33
2022-07-26T14:17:42.087Z,48.00
2022-07-26T14:20:09.512Z,48.17
2022-07-26T14:22:36.202Z,48.24
2022-07-26T14:25:02.861Z,47.94
2022-07-26T14:27:29.561Z,47.97
2022-07-26T14:29:56.460Z,48.24
2022-07-26T14:32:23.263Z,48.14
2022-07-26T14:34:50.957Z,47.86
2022-07-26T14:37:43.473Z,47.86
2022-07-26T14:40:09.157Z,47.98
2022-07-26T14:42:35.757Z,48.08
2022-07-26T14:45:02.322Z,48.15
2022-07-26T14:47:29.025Z,47.75
2022-07-26T14:49:55.571Z,47.90
2022-07-26T14:52:22.348Z,48.05
2022-07-26T14:54:48.932Z,47.74
2022-07-26T14:57:15.552Z,47.96
2022-07-26T14:59:42.065Z,47.97
2022-07-26T15:02:11.303Z,47.75
2022-07-26T15:04:37.865Z,48.20
2022-07-26T15:07:04.508Z,47.97
2022-07-26T15:09:31.114Z,47.77
2022-07-26T15:11:58.204Z,48.08
2022-07-26T15:14:24.732Z,47.95
2022-07-26T15:16:52.032Z,47.90
2022-07-26T15:19:23.637Z,48.17
2022-07-26T15:21:54.761Z,48.23
2022-07-26T15:24:24.316Z,48.01
2022-07-26T15:26:51.173Z,48.38
2022-07-26T15:29:17.791Z,48.30
2022-07-26T15:31:44.676Z,48.32
2022-07-26T15:34:11.811Z,48.17
2022-07-26T15:36:38.800Z,48.35
2022-07-26T15:39:16.551Z,48.59
2022-07-26T15:41:45.323Z,48.17
2022-07-26T15:44:12.484Z,48.28
2022-07-26T15:46:39.745Z,48.02
2022-07-26T15:49:07.463Z,48.28
2022-07-26T15:51:34.497Z,48.23
2022-07-26T15:54:03.056Z,48.18
2022-07-26T15:56:29.902Z,48.01
2022-07-26T15:58:56.497Z,48.03
2022-07-26T16:03:43.855Z,47.80
2022-07-26T16:06:10.502Z,47.73
2022-07-26T16:08:52.765Z,47.54
2022-07-26T16:11:23.681Z,47.74
2022-07-26T16:13:50.293Z,47.71
2022-07-26T16:16:16.979Z,47.81
2022-07-26T16:18:43.902Z,47.37
2022-07-26T16:21:10.562Z,47.77
2022-07-26T16:23:37.525Z,47.65
2022-07-26T16:26:05.757Z,47.55
2022-07-26T16:28:32.525Z,47.52
2022-07-26T16:30:59.170Z,47.17
2022-07-26T16:33:25.817Z,47.58
2022-07-26T16:35:54.514Z,47.44
2022-07-26T16:40:35.789Z,47.41
2022-07-26T16:43:08.844Z,47.12
2022-07-26T16:45:38.548Z,47.39
2022-07-26T16:48:05.639Z,47.27
2022-07-26T16:50:32.311Z,46.97
2022-07-26T16:53:00.680Z,46.94
2022-07-26T16:55:27.458Z,46.89
2022-07-26T16:57:53.981Z,47.14
2022-07-26T17:00:22.177Z,46.83
2022-07-26T17:02:48.731Z,47.18
2022-07-26T17:05:15.495Z,47.18
2022-07-26T17:07:42.197Z,46.81
2022-07-26T17:10:09.974Z,46.97
2022-07-26T17:12:37.518Z,46.81
2022-07-26T17:15:05.262Z,46.94
2022-07-26T17:17:31.797Z,47.09
2022-07-26T17:19:58.492Z,46.89
2022-07-26T17:22:25.118Z,47.02
2022-07-26T17:24:52.182Z,46.77
2022-07-26T17:27:18.823Z,46.58
2022-07-26T17:29:45.791Z,46.88
2022-07-26T17:32:12.412Z,46.94
2022-07-26T17:34:40.060Z,46.87
2022-07-26T17:37:08.289Z,46.52
2022-07-26T17:39:51.728Z,46.81
2022-07-26T17:42:19.691Z,46.49
2022-07-26T17:44:46.288Z,46.42
2022-07-26T17:47:27.819Z,46.84
2022-07-26T17:49:55.783Z,46.46
2022-07-26T17:52:23.578Z,46.77
2022-07-26T17:54:50.766Z,46.62
2022-07-26T17:57:17.358Z,46.65
2022-07-26T17:59:43.902Z,46.79
2022-07-26T18:02:10.610Z,46.84
2022-07-26T18:04:37.330Z,46.76
2022-07-26T18:07:03.929Z,46.49
2022-07-26T18:09:30.517Z,46.28
2022-07-26T18:11:57.183Z,46.74
2022-07-26T18:14:23.864Z,46.54
2022-07-26T18:16:54.477Z,46.96
2022-07-26T18:19:21.834Z,47.06
2022-07-26T18:21:48.690Z,47.13
2022-07-26T18:24:17.253Z,46.86
2022-07-26T18:26:44.384Z,46.86
2022-07-26T18:29:11.491Z,46.71
2022-07-26T18:31:38.338Z,46.90
2022-07-26T18:34:06.718Z,46.88
2022-07-26T18:36:34.411Z,46.76
2022-07-26T18:39:01.177Z,47.09
2022-07-26T18:41:30.361Z,47.27
2022-07-26T18:43:59.463Z,47.14
2022-07-26T18:46:26.108Z,47.00
2022-07-26T18:48:53.048Z,47.25
2022-07-26T18:51:22.013Z,46.84
2022-07-26T18:53:53.663Z,47.02
2022-07-26T18:56:20.849Z,47.06
2022-07-26T18:58:47.470Z,47.48
2022-07-26T19:01:14.188Z,47.83
2022-07-26T19:03:40.930Z,47.94
2022-07-26T19:06:08.634Z,48.30
2022-07-26T19:08:35.521Z,48.52
2022-07-26T19:11:02.057Z,48.14
2022-07-26T19:13:28.986Z,48.27
2022-07-26T19:15:56.294Z,48.60
2022-07-26T19:18:23.254Z,48.21
2022-07-26T19:20:50.039Z,48.21
2022-07-26T19:23:16.681Z,47.95
2022-07-26T19:25:43.381Z,47.93
2022-07-26T19:28:09.958Z,47.58
2022-07-26T19:30:37.051Z,47.54
2022-07-26T19:33:04.472Z,47.87
2022-07-26T19:35:31.064Z,47.92
2022-07-26T19:37:57.721Z,47.35
2022-07-26T19:40:24.702Z,47.41
2022-07-26T19:42:51.569Z,47.51
2022-07-26T19:45:18.581Z,47.51
2022-07-26T19:47:45.472Z,47.62
2022-07-26T19:50:12.341Z,47.63
2022-07-26T19:52:40.660Z,47.51
2022-07-26T19:55:08.333Z,47.17
2022-07-26T19:57:35.178Z,47.41
2022-07-26T20:00:03.422Z,47.16
2022-07-26T20:02:40.723Z,47.44
2022-07-26T20:05:09.861Z,47.09
2022-07-26T20:07:36.529Z,47.57
2022-07-26T20:10:05.200Z,47.38
2022-07-26T20:12:34.322Z,47.35
2022-07-26T20:15:00.985Z,47.53
2022-07-26T20:17:28.563Z,47.47
2022-07-26T20:19:55.459Z,47.16
2022-07-26T20:22:23.379Z,47.56
2022-07-26T20:24:55.084Z,47.22
2022-07-26T20:27:23.419Z,47.44
2022-07-26T20:29:50.201Z,47.58
2022-07-26T20:32:17.509Z,47.14
2022-07-26T20:34:44.272Z,47.54
2022-07-26T20:37:10.994Z,47.17
2022-07-26T20:39:38.283Z,47.47
2022-07-26T20:42:06.692Z,47.13
2022-07-26T20:44:36.069Z,47.29
2022-07-26T20:47:06.081Z,47.46
2022-07-26T20:49:32.983Z,47.47
2022-07-26T20:52:00.170Z,47.42
2022-07-26T20:54:26.927Z,47.08
2022-07-26T20:56:53.734Z,47.37
2022-07-26T20:59:20.341Z,47.42
2022-07-26T21:01:47.110Z,47.19
2022-07-26T21:04:17.114Z,47.12
2022-07-26T21:06:43.710Z,47.41
2022-07-26T21:09:10.726Z,47.42
2022-07-26T21:14:03.832Z,46.86
2022-07-26T21:16:30.484Z,47.24
2022-07-26T21:18:57.077Z,47.43
2022-07-26T21:21:23.920Z,47.32
2022-07-26T21:23:50.844Z,47.33
2022-07-26T21:26:17.553Z,47.46
2022-07-26T21:28:44.478Z,47.19
2022-07-26T21:31:11.237Z,47.33
2022-07-26T21:33:37.933Z,47.12
2022-07-26T21:36:04.938Z,47.51
2022-07-26T21:38:33.266Z,47.52
2022-07-26T21:41:00.016Z,47.27
2022-07-26T21:43:26.761Z,47.05
2022-07-26T21:45:54.456Z,47.37
2022-07-26T21:48:22.892Z,47.40
2022-07-26T21:50:49.697Z,46.99
2022-07-26T21:53:16.354Z,47.24
2022-07-26T21:55:43.249Z,47.21
2022-07-26T21:58:10.376Z,46.84
2022-07-26T22:00:39.081Z,46.89
2022-07-26T22:03:06.841Z,46.93
2022-07-26T22:05:39.152Z,46.42
2022-07-26T22:08:10.957Z,46.63
2022-07-26T22:10:43.447Z,46.67
2022-07-26T22:13:11.662Z,46.49
2022-07-26T22:15:38.201Z,46.10
2022-07-26T22:18:05.235Z,45.94
2022-07-26T22:23:06.261Z,46.24
2022-07-26T22:25:34.105Z,46.22
2022-07-26T22:28:01.646Z,46.12
2022-07-26T22:30:29.324Z,46.05
2022-07-26T22:32:57.007Z,45.76
2022-07-26T22:35:34.892Z,46.08
2022-07-26T22:38:06.228Z,45.78
2022-07-26T22:40:33.101Z,45.72
2022-07-26T22:43:00.312Z,45.69
2022-07-26T22:45:28.805Z,45.50
2022-07-26T22:47:56.699Z,45.73
2022-07-26T22:50:24.901Z,45.43
2022-07-26T22:52:52.384Z,45.62
2022-07-26T22:55:19.460Z,45.67
2022-07-26T22:57:46.573Z,45.55
2022-07-26T23:00:16.137Z,45.29
2022-07-26T23:02:43.711Z,45.51
2022-07-26T23:05:11.642Z,45.44
2022-07-26T23:07:40.141Z,45.27
2022-07-26T23:10:10.993Z,45.35
2022-07-26T23:12:37.741Z,45.12
2022-07-26T23:15:06.696Z,44.88
2022-07-26T23:17:35.758Z,45.03
2022-07-26T23:20:06.759Z,44.97
2022-07-26T23:22:33.936Z,45.03
2022-07-26T23:25:00.546Z,44.88
2022-07-26T23:27:27.147Z,45.00
2022-07-26T23:29:53.753Z,44.72
2022-07-26T23:32:20.385Z,44.61
2022-07-26T23:34:47.006Z,44.73
2022-07-26T23:37:13.594Z,44.88
2022-07-26T23:39:40.133Z,44.59
2022-07-26T23:42:07.380Z,44.77
2022-07-26T23:44:34.210Z,44.58
2022-07-26T23:47:01.011Z,44.88
2022-07-26T23:49:27.981Z,44.54
2022-07-26T23:51:54.786Z,44.34
2022-07-26T23:54:21.578Z,44.41
2022-07-26T23:56:48.256Z,44.40
2022-07-26T23:59:15.536Z,44.23
